createdAt,value
2023-07-21T00:00:19.692Z,99990.16
2023-07-21T00:02:51.808Z,99985.31
2023-07-21T00:05:19.345Z,99980.09
2023-07-21T00:07:49.407Z,99979.78
2023-07-21T00:10:17.208Z,99973.38
2023-07-21T00:12:49.660Z,99972.03
2023-07-21T00:15:19.343Z,99979.09
2023-07-21T00:17:48.727Z,99979.31
2023-07-21T00:20:26.198Z,99986.53
2023-07-21T00:22:53.579Z,99997.78
2023-07-21T00:25:21.070Z,100002.16
2023-07-21T00:27:49.064Z,100000.31
2023-07-21T00:30:18.196Z,99997.09
2023-07-21T00:32:46.328Z,100003.69
2023-07-21T00:35:14.014Z,100003.34
2023-07-21T00:37:42.525Z,100010.41
2023-07-21T00:40:11.520Z,100014.28
2023-07-21T00:42:40.440Z,100007.06
2023-07-21T00:45:08.156Z,100013.09
2023-07-21T00:47:37.680Z,100015.97
2023-07-21T00:50:05.979Z,100014.47
2023-07-21T00:52:34.115Z,100014.81
2023-07-21T00:55:02.581Z,100010.75
2023-07-21T00:57:33.208Z,100019.00
2023-07-21T01:00:01.922Z,100017.16
2023-07-21T01:02:31.231Z,100026.41
2023-07-21T01:05:02.560Z,100019.84
2023-07-21T01:07:32.241Z,100018.34
2023-07-21T01:10:00.297Z,100026.06
2023-07-21T01:12:28.113Z,100022.84
2023-07-21T01:14:55.726Z,100014.63
2023-07-21T01:17:24.407Z,100011.75
2023-07-21T01:19:52.275Z,100015.28
2023-07-21T01:22:19.976Z,100014.44
2023-07-21T01:24:50.403Z,100019.97
2023-07-21T01:27:23.537Z,100022.84
2023-07-21T01:29:53.144Z,100009.88
2023-07-21T01:32:26.849Z,100022.47
2023-07-21T01:34:56.477Z,100014.78
2023-07-21T01:37:25.786Z,100029.88
2023-07-21T01:39:57.471Z,100037.94
2023-07-21T01:42:30.804Z,100037.44
2023-07-21T01:44:58.274Z,100037.59
2023-07-21T01:47:25.961Z,100038.13
2023-07-21T01:49:53.410Z,100051.06
2023-07-21T01:52:20.828Z,100052.38
2023-07-21T01:54:53.644Z,100053.72
2023-07-21T01:57:32.753Z,100053.41
2023-07-21T02:00:02.215Z,100054.72
2023-07-21T02:02:46.000Z,100057.94
2023-07-21T02:05:25.349Z,100062.84
2023-07-21T02:07:55.873Z,100061.66
2023-07-21T02:10:23.755Z,100054.78
2023-07-21T02:13:07.472Z,100050.22
2023-07-21T02:15:35.447Z,100061.28
2023-07-21T02:18:03.080Z,100068.88
2023-07-21T02:20:30.603Z,100071.03
2023-07-21T02:22:58.093Z,100081.59
2023-07-21T02:25:25.824Z,100074.72
2023-07-21T02:27:55.464Z,100085.28
2023-07-21T02:30:22.882Z,100100.41
2023-07-21T02:32:50.307Z,100099.75
2023-07-21T02:35:17.627Z,100112.81
2023-07-21T02:37:47.208Z,100113.16
2023-07-21T02:40:15.837Z,100115.69
2023-07-21T02:42:44.505Z,100114.00
2023-07-21T02:45:11.904Z,100111.13
2023-07-21T02:47:40.428Z,100117.44
2023-07-21T02:50:11.253Z,100118.44
2023-07-21T02:52:40.317Z,100126.50
2023-07-21T02:55:08.606Z,100114.25
2023-07-21T02:57:37.752Z,100125.19
2023-07-21T03:00:06.938Z,100129.84
2023-07-21T03:02:43.862Z,100136.13
2023-07-21T03:05:11.705Z,100142.97
2023-07-21T03:07:40.542Z,100141.28
2023-07-21T03:10:12.495Z,100135.56
2023-07-21T03:12:40.805Z,100134.25
2023-07-21T03:15:18.460Z,100137.91
2023-07-21T03:18:00.241Z,100148.50
2023-07-21T03:20:31.369Z,100152.03
2023-07-21T03:22:58.899Z,100153.72
2023-07-21T03:25:26.621Z,100157.91
2023-07-21T03:27:54.001Z,100152.56
2023-07-21T03:30:23.539Z,100158.47
2023-07-21T03:33:11.424Z,100156.59
2023-07-21T03:35:39.769Z,100154.41
2023-07-21T03:38:07.791Z,100164.66
2023-07-21T03:40:37.166Z,100162.78
2023-07-21T03:43:05.842Z,100178.56
2023-07-21T03:45:34.197Z,100176.03
2023-07-21T03:48:02.113Z,100176.88
2023-07-21T03:50:31.901Z,100184.56
2023-07-21T03:52:59.207Z,100177.84
2023-07-21T03:55:26.565Z,100183.00
2023-07-21T03:57:53.908Z,100180.00
2023-07-21T04:00:21.443Z,100182.88
2023-07-21T04:02:49.045Z,100186.09
2023-07-21T04:05:16.861Z,100176.91
2023-07-21T04:07:44.953Z,100180.63
2023-07-21T04:10:12.293Z,100178.94
2023-07-21T04:12:40.142Z,100178.47
2023-07-21T04:15:08.470Z,100171.94
2023-07-21T04:17:36.074Z,100188.06
2023-07-21T04:20:05.400Z,100191.75
2023-07-21T04:22:34.192Z,100201.19
2023-07-21T04:25:01.835Z,100215.28
2023-07-21T04:27:30.202Z,100220.13
2023-07-21T04:29:57.947Z,100207.72
2023-07-21T04:32:26.319Z,100213.78
2023-07-21T04:34:57.144Z,100225.50
2023-07-21T04:37:24.716Z,100205.72
2023-07-21T04:39:55.288Z,100226.34
2023-07-21T04:42:23.013Z,100225.69
2023-07-21T04:44:50.484Z,100219.00
2023-07-21T04:47:19.335Z,100225.06
2023-07-21T04:50:20.732Z,100230.59
2023-07-21T04:52:49.000Z,100238.50
2023-07-21T04:55:16.570Z,100241.75
2023-07-21T04:57:44.586Z,100243.94
2023-07-21T05:00:13.464Z,100249.66
2023-07-21T05:02:42.563Z,100254.75
2023-07-21T05:05:10.280Z,100259.28
2023-07-21T05:07:45.218Z,100259.47
2023-07-21T05:10:12.880Z,100263.25
2023-07-21T05:12:41.986Z,100252.31
2023-07-21T05:15:24.134Z,100265.19
2023-07-21T05:17:59.662Z,100259.72
2023-07-21T05:20:42.007Z,100254.00
2023-07-21T05:23:17.974Z,100259.13
2023-07-21T05:26:05.709Z,100248.38
2023-07-21T05:28:37.313Z,100244.03
2023-07-21T05:31:04.968Z,100233.78
2023-07-21T05:33:48.320Z,100239.28
2023-07-21T05:36:16.605Z,100238.97
2023-07-21T05:38:44.524Z,100243.66
2023-07-21T05:41:12.512Z,100247.69
2023-07-21T05:43:40.589Z,100239.47
2023-07-21T05:46:09.063Z,100235.47
2023-07-21T05:48:43.186Z,100235.66
2023-07-21T05:51:14.391Z,100230.97
2023-07-21T05:53:45.249Z,100239.03
2023-07-21T05:56:16.578Z,100234.00
2023-07-21T05:59:13.683Z,100240.09
2023-07-21T06:01:42.430Z,100236.22
2023-07-21T06:04:10.318Z,100240.78
2023-07-21T06:06:39.417Z,100231.50
2023-07-21T06:09:40.221Z,100249.16
2023-07-21T06:12:36.604Z,100246.13
2023-07-21T06:15:20.929Z,100256.59
2023-07-21T06:17:59.520Z,100260.31
2023-07-21T06:20:30.166Z,100256.94
2023-07-21T06:22:59.006Z,100260.31
2023-07-21T06:25:28.475Z,100264.50
2023-07-21T06:28:02.386Z,100277.06
2023-07-21T06:30:31.100Z,100268.34
2023-07-21T06:32:59.034Z,100264.88
2023-07-21T06:35:38.822Z,100264.69
2023-07-21T06:38:38.427Z,100268.91
2023-07-21T06:41:15.826Z,100261.13
2023-07-21T06:43:47.138Z,100256.59
2023-07-21T06:46:25.973Z,100264.84
2023-07-21T06:48:55.122Z,100269.84
2023-07-21T06:51:33.599Z,100266.50
2023-07-21T06:54:01.043Z,100266.84
2023-07-21T06:56:29.409Z,100274.41
2023-07-21T06:58:57.031Z,100266.47
2023-07-21T07:01:24.821Z,100270.16
2023-07-21T07:03:52.855Z,100278.06
2023-07-21T07:06:20.539Z,100278.84
2023-07-21T07:08:47.977Z,100275.16
2023-07-21T07:11:16.232Z,100272.91
2023-07-21T07:13:43.633Z,100278.69
2023-07-21T07:16:12.849Z,100274.66
2023-07-21T07:18:40.819Z,100279.50
2023-07-21T07:21:08.415Z,100276.91
2023-07-21T07:23:38.364Z,100279.44
2023-07-21T07:26:06.447Z,100288.75
2023-07-21T07:28:34.505Z,100287.06
2023-07-21T07:31:05.653Z,100291.25
2023-07-21T07:33:33.844Z,100286.84
2023-07-21T07:36:01.622Z,100300.59
2023-07-21T07:38:30.479Z,100293.97
2023-07-21T07:41:02.535Z,100296.78
2023-07-21T07:43:30.541Z,100295.69
2023-07-21T07:45:59.033Z,100297.75
2023-07-21T07:48:26.824Z,100308.19
2023-07-21T07:50:54.885Z,100307.16
2023-07-21T07:53:22.621Z,100301.97
2023-07-21T07:55:50.266Z,100315.66
2023-07-21T07:58:17.857Z,100313.44
2023-07-21T08:00:45.906Z,100306.53
2023-07-21T08:03:15.419Z,100304.75
2023-07-21T08:05:43.006Z,100308.16
2023-07-21T08:08:14.175Z,100322.50
2023-07-21T08:10:43.072Z,100311.09
2023-07-21T08:13:10.623Z,100321.28
2023-07-21T08:15:45.468Z,100333.19
2023-07-21T08:18:13.566Z,100323.31
2023-07-21T08:20:42.272Z,100329.72
2023-07-21T08:23:23.471Z,100338.94
2023-07-21T08:25:56.481Z,100329.81
2023-07-21T08:28:23.981Z,100343.50
2023-07-21T08:30:58.773Z,100347.88
2023-07-21T08:33:28.713Z,100335.97
2023-07-21T08:35:56.308Z,100353.47
2023-07-21T08:38:25.598Z,100350.38
2023-07-21T08:41:02.310Z,100350.38
2023-07-21T08:43:30.507Z,100347.59
2023-07-21T08:46:01.746Z,100348.97
2023-07-21T08:48:31.519Z,100358.72
2023-07-21T08:50:59.917Z,100360.03
2023-07-21T08:53:28.090Z,100371.47
2023-07-21T08:55:59.889Z,100357.78
2023-07-21T08:58:28.613Z,100381.38
2023-07-21T09:00:57.603Z,100383.88
2023-07-21T09:03:27.719Z,100376.63
2023-07-21T09:05:57.802Z,100398.63
2023-07-21T09:08:28.576Z,100390.31
2023-07-21T09:11:03.457Z,100391.00
2023-07-21T09:13:32.248Z,100372.69
2023-07-21T09:16:01.786Z,100381.06
2023-07-21T09:18:31.253Z,100376.94
2023-07-21T09:20:59.144Z,100403.44
2023-07-21T09:23:30.659Z,100393.00
2023-07-21T09:26:03.517Z,100391.84
2023-07-21T09:28:46.072Z,100396.16
2023-07-21T09:31:14.836Z,100375.41
2023-07-21T09:33:47.108Z,100400.28
2023-07-21T09:36:17.116Z,100411.28
2023-07-21T09:38:45.779Z,100411.28
2023-07-21T09:41:15.003Z,100411.59
2023-07-21T09:43:43.578Z,100404.28
2023-07-21T09:48:43.686Z,100414.44
2023-07-21T09:51:11.785Z,100408.50
2023-07-21T09:53:44.591Z,100417.16
2023-07-21T09:56:15.045Z,100420.31
2023-07-21T09:58:54.555Z,100414.19
2023-07-21T10:01:25.255Z,100424.34
2023-07-21T10:03:53.799Z,100420.06
2023-07-21T10:06:24.182Z,100420.56
2023-07-21T10:08:52.742Z,100413.94
2023-07-21T10:11:20.392Z,100418.84
2023-07-21T10:13:49.179Z,100435.28
2023-07-21T10:16:22.237Z,100421.69
2023-07-21T10:19:13.425Z,100431.81
2023-07-21T10:21:51.787Z,100420.59
2023-07-21T10:24:27.303Z,100432.44
2023-07-21T10:27:04.962Z,100420.53
2023-07-21T10:29:32.966Z,100413.47
2023-07-21T10:32:04.539Z,100420.88
2023-07-21T10:34:35.551Z,100432.72
2023-07-21T10:37:06.217Z,100424.56
2023-07-21T10:39:36.432Z,100432.16
2023-07-21T10:42:08.607Z,100422.13
2023-07-21T10:44:46.237Z,100415.97
2023-07-21T10:47:22.558Z,100415.41
2023-07-21T10:49:50.544Z,100425.78
2023-07-21T10:52:18.282Z,100423.66
2023-07-21T10:54:45.753Z,100414.34
2023-07-21T10:57:13.400Z,100425.38
2023-07-21T10:59:44.274Z,100413.94
2023-07-21T11:02:12.509Z,100416.31
2023-07-21T11:04:42.617Z,100419.78
2023-07-21T11:07:17.207Z,100430.25
2023-07-21T11:09:47.169Z,100440.34
2023-07-21T11:12:14.795Z,100432.59
2023-07-21T11:14:43.105Z,100420.53
2023-07-21T11:17:10.833Z,100428.94
2023-07-21T11:19:40.124Z,100419.44
2023-07-21T11:22:08.441Z,100438.41
2023-07-21T11:24:36.764Z,100430.66
2023-07-21T11:27:10.224Z,100431.03
2023-07-21T11:29:42.028Z,100428.09
2023-07-21T11:32:24.326Z,100434.72
2023-07-21T11:35:00.419Z,100434.47
2023-07-21T11:37:37.811Z,100420.09
2023-07-21T11:40:25.934Z,100437.63
2023-07-21T11:42:57.694Z,100447.50
2023-07-21T11:45:42.863Z,100458.91
2023-07-21T11:48:19.753Z,100440.81
2023-07-21T11:50:55.455Z,100451.03
2023-07-21T11:53:24.910Z,100440.09
2023-07-21T11:55:55.696Z,100447.00
2023-07-21T11:58:23.455Z,100440.72
2023-07-21T12:00:51.746Z,100448.19
2023-07-21T12:03:24.463Z,100454.25
2023-07-21T12:05:51.989Z,100449.78
2023-07-21T12:08:19.406Z,100452.22
2023-07-21T12:10:46.990Z,100462.38
2023-07-21T12:13:14.377Z,100460.50
2023-07-21T12:15:42.017Z,100462.38
2023-07-21T12:18:09.352Z,100453.16
2023-07-21T12:20:37.823Z,100446.63
2023-07-21T12:23:05.380Z,100451.66
2023-07-21T12:25:35.263Z,100451.25
2023-07-21T12:28:02.724Z,100457.69
2023-07-21T12:30:31.050Z,100458.66
2023-07-21T12:32:59.276Z,100465.28
2023-07-21T12:35:26.946Z,100454.84
2023-07-21T12:37:54.397Z,100466.22
2023-07-21T12:40:22.010Z,100474.66
2023-07-21T12:42:49.767Z,100467.78
2023-07-21T12:45:17.332Z,100478.81
2023-07-21T12:47:44.678Z,100475.06
2023-07-21T12:50:12.956Z,100468.41
2023-07-21T12:52:40.335Z,100469.16
2023-07-21T12:55:08.081Z,100470.91
2023-07-21T12:57:35.544Z,100464.78
2023-07-21T13:00:02.946Z,100471.03
2023-07-21T13:02:30.591Z,100489.22
2023-07-21T13:04:57.985Z,100486.34
2023-07-21T13:07:25.708Z,100484.19
2023-07-21T13:09:53.758Z,100487.72
2023-07-21T13:12:21.448Z,100480.97
2023-07-21T13:14:49.036Z,100477.44
2023-07-21T13:17:16.736Z,100478.72
2023-07-21T13:19:44.335Z,100486.00
2023-07-21T13:22:11.830Z,100479.00
2023-07-21T13:24:39.407Z,100473.72
2023-07-21T13:27:06.950Z,100479.13
2023-07-21T13:29:35.594Z,100484.53
2023-07-21T13:32:03.392Z,100479.16
2023-07-21T13:34:31.042Z,100482.47
2023-07-21T13:36:58.466Z,100475.34
2023-07-21T13:39:25.891Z,100469.09
2023-07-21T13:41:53.517Z,100472.66
2023-07-21T13:44:20.990Z,100475.16
2023-07-21T13:46:48.396Z,100474.44
2023-07-21T13:49:15.832Z,100479.22
2023-07-21T13:51:43.335Z,100486.00
2023-07-21T13:54:12.257Z,100492.03
2023-07-21T13:56:41.595Z,100491.78
2023-07-21T13:59:09.065Z,100486.81
2023-07-21T14:01:36.585Z,100489.72
2023-07-21T14:04:04.034Z,100487.84
2023-07-21T14:06:32.529Z,100486.91
2023-07-21T14:09:01.638Z,100496.28
2023-07-21T14:11:31.992Z,100493.28
2023-07-21T14:14:06.224Z,100493.19
2023-07-21T14:16:35.428Z,100497.22
2023-07-21T14:19:04.868Z,100514.00
2023-07-21T14:21:32.258Z,100507.50
2023-07-21T14:24:01.098Z,100507.69
2023-07-21T14:26:30.236Z,100506.09
2023-07-21T14:28:57.619Z,100508.91
2023-07-21T14:31:25.192Z,100517.31
2023-07-21T14:33:54.872Z,100528.44
2023-07-21T14:36:25.341Z,100534.47
2023-07-21T14:38:54.249Z,100526.97
2023-07-21T14:41:22.106Z,100538.22
2023-07-21T14:43:49.518Z,100526.72
2023-07-21T14:46:16.867Z,100528.16
2023-07-21T14:48:44.591Z,100531.94
2023-07-21T14:51:12.595Z,100531.28
2023-07-21T14:53:40.143Z,100534.00
2023-07-21T14:56:07.662Z,100532.28
2023-07-21T14:58:36.491Z,100526.16
2023-07-21T15:01:03.922Z,100537.81
2023-07-21T15:03:31.622Z,100530.97
2023-07-21T15:05:58.879Z,100537.50
2023-07-21T15:08:26.550Z,100530.19
2023-07-21T15:10:55.164Z,100544.34
2023-07-21T15:13:22.921Z,100529.63
2023-07-21T15:15:52.054Z,100532.84
2023-07-21T15:18:19.787Z,100527.88
2023-07-21T15:20:47.491Z,100540.31
2023-07-21T15:23:15.607Z,100537.81
2023-07-21T15:25:43.654Z,100538.59
2023-07-21T15:28:12.467Z,100540.28
2023-07-21T15:30:44.314Z,100535.69
2023-07-21T15:33:12.891Z,100543.84
2023-07-21T15:35:46.516Z,100546.75
2023-07-21T15:38:14.596Z,100551.59
2023-07-21T15:40:42.707Z,100564.06
2023-07-21T15:43:10.520Z,100563.28
2023-07-21T15:45:39.667Z,100564.56
2023-07-21T15:48:10.174Z,100576.31
2023-07-21T15:50:38.205Z,100577.22
2023-07-21T15:53:06.080Z,100577.22
2023-07-21T15:55:33.867Z,100587.22
2023-07-21T15:58:01.500Z,100591.44
2023-07-21T16:00:29.306Z,100592.25
2023-07-21T16:02:58.115Z,100601.06
2023-07-21T16:05:25.838Z,100601.47
2023-07-21T16:07:53.646Z,100591.66
2023-07-21T16:10:20.995Z,100596.69
2023-07-21T16:12:48.767Z,100585.38
2023-07-21T16:15:16.310Z,100593.31
2023-07-21T16:17:47.181Z,100598.78
2023-07-21T16:20:15.000Z,100601.75
2023-07-21T16:22:43.631Z,100600.00
2023-07-21T16:25:11.348Z,100598.19
2023-07-21T16:27:38.946Z,100601.19
2023-07-21T16:30:07.197Z,100594.03
2023-07-21T16:32:34.837Z,100594.66
2023-07-21T16:35:03.925Z,100598.25
2023-07-21T16:37:31.611Z,100591.38
2023-07-21T16:40:01.541Z,100602.94
2023-07-21T16:42:31.834Z,100601.84
2023-07-21T16:45:02.561Z,100608.44
2023-07-21T16:47:31.167Z,100603.41
2023-07-21T16:49:58.966Z,100607.81
2023-07-21T16:52:26.746Z,100606.34
2023-07-21T16:54:55.264Z,100604.03
2023-07-21T16:57:23.476Z,100604.94
2023-07-21T16:59:57.446Z,100613.38
2023-07-21T17:02:25.649Z,100622.38
2023-07-21T17:04:54.973Z,100633.00
2023-07-21T17:07:26.153Z,100643.66
2023-07-21T17:09:54.594Z,100644.50
2023-07-21T17:12:24.675Z,100644.88
2023-07-21T17:14:52.148Z,100642.16
2023-07-21T17:17:20.518Z,100638.81
2023-07-21T17:19:48.147Z,100639.81
2023-07-21T17:22:16.179Z,100640.84
2023-07-21T17:24:46.203Z,100645.56
2023-07-21T17:27:16.098Z,100640.66
2023-07-21T17:29:43.878Z,100656.56
2023-07-21T17:32:11.209Z,100656.41
2023-07-21T17:34:38.961Z,100654.06
2023-07-21T17:37:06.478Z,100653.53
2023-07-21T17:39:34.659Z,100660.34
2023-07-21T17:42:02.324Z,100669.44
2023-07-21T17:44:30.062Z,100661.84
2023-07-21T17:46:57.814Z,100664.53
2023-07-21T17:49:25.384Z,100674.66
2023-07-21T17:51:53.674Z,100685.47
2023-07-21T17:54:21.188Z,100702.66
2023-07-21T17:56:49.056Z,100707.56
2023-07-21T17:59:16.437Z,100702.84
2023-07-21T18:01:44.230Z,100710.38
2023-07-21T18:04:11.792Z,100710.72
2023-07-21T18:06:39.968Z,100715.94
2023-07-21T18:09:09.454Z,100724.69
2023-07-21T18:11:37.044Z,100724.53
2023-07-21T18:14:08.522Z,100732.94
2023-07-21T18:16:36.305Z,100717.75
2023-07-21T18:19:04.706Z,100714.56
2023-07-21T18:21:33.008Z,100723.13
2023-07-21T18:24:00.760Z,100728.88
2023-07-21T18:26:29.309Z,100726.00
2023-07-21T18:28:57.119Z,100728.69
2023-07-21T18:31:24.844Z,100733.41
2023-07-21T18:33:59.117Z,100733.53
2023-07-21T18:36:27.031Z,100733.72
2023-07-21T18:38:54.662Z,100731.66
2023-07-21T18:41:23.168Z,100732.00
2023-07-21T18:43:51.359Z,100740.56
2023-07-21T18:46:21.145Z,100748.81
2023-07-21T18:48:48.771Z,100739.28
2023-07-21T18:51:16.452Z,100747.53
2023-07-21T18:53:44.327Z,100748.84
2023-07-21T18:56:12.386Z,100745.16
2023-07-21T18:58:40.408Z,100752.19
2023-07-21T19:01:07.864Z,100751.69
2023-07-21T19:03:35.519Z,100755.06
2023-07-21T19:06:07.349Z,100758.44
2023-07-21T19:08:35.269Z,100762.13
2023-07-21T19:11:02.582Z,100758.09
2023-07-21T19:13:32.405Z,100755.69
2023-07-21T19:16:05.495Z,100760.41
2023-07-21T19:18:35.934Z,100741.53
2023-07-21T19:21:05.940Z,100748.25
2023-07-21T19:23:39.240Z,100746.72
2023-07-21T19:26:07.120Z,100742.72
2023-07-21T19:28:35.834Z,100752.31
2023-07-21T19:31:03.364Z,100741.88
2023-07-21T19:33:30.992Z,100756.31
2023-07-21T19:35:58.703Z,100747.34
2023-07-21T19:38:27.463Z,100748.19
2023-07-21T19:40:57.170Z,100746.19
2023-07-21T19:43:25.509Z,100739.28
2023-07-21T19:45:53.125Z,100745.50
2023-07-21T19:48:21.622Z,100740.06
2023-07-21T19:50:49.555Z,100746.47
2023-07-21T19:53:17.269Z,100758.53
2023-07-21T19:55:44.646Z,100764.47
2023-07-21T19:58:12.092Z,100763.59
2023-07-21T20:00:43.015Z,100763.88
2023-07-21T20:03:10.837Z,100756.13
2023-07-21T20:05:38.486Z,100755.78
2023-07-21T20:08:05.811Z,100762.47
2023-07-21T20:10:37.223Z,100778.13
2023-07-21T20:13:05.152Z,100793.59
2023-07-21T20:15:32.893Z,100790.19
2023-07-21T20:18:00.378Z,100788.84
2023-07-21T20:20:28.056Z,100783.41
2023-07-21T20:22:55.616Z,100788.28
2023-07-21T20:25:23.067Z,100789.06
2023-07-21T20:27:50.623Z,100780.88
2023-07-21T20:30:19.824Z,100778.56
2023-07-21T20:32:48.600Z,100774.88
2023-07-21T20:35:16.242Z,100772.91
2023-07-21T20:37:43.557Z,100774.19
2023-07-21T20:40:11.512Z,100776.56
2023-07-21T20:42:38.874Z,100778.56
2023-07-21T20:45:07.392Z,100774.03
2023-07-21T20:47:34.993Z,100781.94
2023-07-21T20:50:02.422Z,100780.03
2023-07-21T20:52:30.389Z,100778.78
2023-07-21T20:54:57.821Z,100772.19
2023-07-21T20:57:25.310Z,100781.13
2023-07-21T20:59:52.608Z,100786.84
2023-07-21T21:02:20.680Z,100786.34
2023-07-21T21:04:48.604Z,100790.88
2023-07-21T21:07:16.312Z,100782.41
2023-07-21T21:09:43.836Z,100785.25
2023-07-21T21:12:19.258Z,100791.47
2023-07-21T21:14:46.997Z,100792.75
2023-07-21T21:17:14.717Z,100791.91
2023-07-21T21:19:42.254Z,100794.75
2023-07-21T21:22:09.977Z,100795.78
2023-07-21T21:24:37.737Z,100795.78
2023-07-21T21:27:05.267Z,100794.94
2023-07-21T21:29:34.516Z,100798.91
2023-07-21T21:32:01.985Z,100796.38
2023-07-21T21:34:29.675Z,100796.69
2023-07-21T21:36:56.945Z,100790.59
2023-07-21T21:39:24.515Z,100797.38
2023-07-21T21:41:51.976Z,100791.31
2023-07-21T21:44:19.882Z,100784.59
2023-07-21T21:46:48.077Z,100787.38
2023-07-21T21:49:15.822Z,100790.81
2023-07-21T21:51:45.218Z,100780.31
2023-07-21T21:54:12.573Z,100783.16
2023-07-21T21:56:40.017Z,100789.38
2023-07-21T21:59:07.645Z,100786.28
2023-07-21T22:01:35.451Z,100787.50
2023-07-21T22:04:02.860Z,100786.63
2023-07-21T22:06:30.342Z,100777.47
2023-07-21T22:08:57.785Z,100781.03
2023-07-21T22:11:25.978Z,100781.41
2023-07-21T22:13:53.643Z,100780.16
2023-07-21T22:16:21.451Z,100786.66
2023-07-21T22:18:48.839Z,100790.34
2023-07-21T22:21:16.145Z,100793.03
2023-07-21T22:23:43.461Z,100789.22
2023-07-21T22:26:10.742Z,100813.97
2023-07-21T22:28:38.078Z,100812.66
2023-07-21T22:31:18.924Z,100815.81
2023-07-21T22:33:47.077Z,100818.66
2023-07-21T22:36:14.777Z,100829.09
2023-07-21T22:38:42.479Z,100826.72
2023-07-21T22:41:13.168Z,100831.09
2023-07-21T22:43:41.474Z,100838.22
2023-07-21T22:46:08.905Z,100833.13
2023-07-21T22:48:38.870Z,100837.94
2023-07-21T22:51:07.432Z,100823.78
2023-07-21T22:53:40.688Z,100826.63
2023-07-21T22:56:09.171Z,100832.84
2023-07-21T22:58:37.902Z,100843.16
2023-07-21T23:01:09.311Z,100843.31
2023-07-21T23:03:37.101Z,100839.09
2023-07-21T23:06:04.834Z,100846.16
2023-07-21T23:08:33.510Z,100844.16
2023-07-21T23:11:00.999Z,100849.25
2023-07-21T23:13:28.426Z,100851.25
2023-07-21T23:15:55.935Z,100853.38
2023-07-21T23:18:23.450Z,100863.84
2023-07-21T23:20:50.814Z,100865.56
2023-07-21T23:23:18.249Z,100865.81
2023-07-21T23:25:45.791Z,100872.31
2023-07-21T23:28:13.225Z,100869.91
2023-07-21T23:30:43.668Z,100868.66
2023-07-21T23:33:12.369Z,100871.06
2023-07-21T23:35:39.831Z,100878.13
2023-07-21T23:38:07.755Z,100862.88
2023-07-21T23:40:35.096Z,100862.03
2023-07-21T23:43:02.405Z,100864.84
2023-07-21T23:45:29.976Z,100870.06
2023-07-21T23:47:57.429Z,100870.75
2023-07-21T23:50:24.799Z,100870.91
2023-07-21T23:52:52.153Z,100876.56
2023-07-21T23:55:19.440Z,100879.25
2023-07-21T23:57:46.839Z,100881.22
